createdAt,value
2018-05-21T00:01:04.870Z,1020.9
2018-05-21T00:06:05.414Z,1020.9
2018-05-21T00:11:04.892Z,1020.9
2018-05-21T00:16:05.242Z,1020.9
2018-05-21T00:21:04.721Z,1020.8
2018-05-21T00:26:04.926Z,1020.8
2018-05-21T00:31:05.217Z,1020.8
2018-05-21T00:36:04.707Z,1020.8
2018-05-21T00:41:05.249Z,1020.8
2018-05-21T00:46:04.612Z,1020.7
2018-05-21T00:51:05.024Z,1020.7
2018-05-21T00:56:05.268Z,1020.6
2018-05-21T01:01:04.599Z,1020.6
2018-05-21T01:06:05.014Z,1020.5
2018-05-21T01:11:04.588Z,1020.5
2018-05-21T01:16:04.922Z,1020.5
2018-05-21T01:21:04.794Z,1020.6
2018-05-21T01:26:04.597Z,1020.5
2018-05-21T01:31:04.908Z,1020.5
2018-05-21T01:36:05.347Z,1020.4
2018-05-21T01:41:04.904Z,1020.4
2018-05-21T01:46:05.199Z,1020.4
2018-05-21T01:51:04.683Z,1020.4
2018-05-21T01:56:04.877Z,1020.4
2018-05-21T02:01:10.201Z,1020.4
2018-05-21T02:06:04.647Z,1020.5
2018-05-21T02:11:05.192Z,1020.4
2018-05-21T02:16:04.620Z,1020.3
2018-05-21T02:21:04.991Z,1020.3
2018-05-21T02:26:05.232Z,1020.3
2018-05-21T02:31:04.472Z,1020.3
2018-05-21T02:36:04.986Z,1020.3
2018-05-21T02:41:04.559Z,1020.2
2018-05-21T02:46:04.855Z,1020.2
2018-05-21T02:51:05.302Z,1020.2
2018-05-21T02:56:04.541Z,1020.3
2018-05-21T03:01:04.793Z,1020.2
2018-05-21T03:06:05.262Z,1020.2
2018-05-21T03:11:04.901Z,1020.2
2018-05-21T03:16:05.160Z,1020.2
2018-05-21T03:21:04.724Z,1020.1
2018-05-21T03:26:04.898Z,1020.1
2018-05-21T03:31:05.229Z,1020.1
2018-05-21T03:36:04.641Z,1020.1
2018-05-21T03:41:05.194Z,1020
2018-05-21T03:46:04.501Z,1020.2
2018-05-21T03:51:04.928Z,1020.1
2018-05-21T03:56:05.169Z,1020
2018-05-21T04:01:04.463Z,1020.1
2018-05-21T04:06:04.909Z,1020
2018-05-21T04:11:04.527Z,1020
2018-05-21T04:16:04.764Z,1020
2018-05-21T04:21:05.270Z,1020
2018-05-21T04:26:05.253Z,1020
2018-05-21T04:31:05.144Z,1019.9
2018-05-21T04:36:05.068Z,1019.9
2018-05-21T04:41:04.681Z,1019.8
2018-05-21T04:46:04.954Z,1019.8
2018-05-21T04:51:04.442Z,1019.9
2018-05-21T04:56:04.633Z,1019.8
2018-05-21T05:01:05.496Z,1019.9
2018-05-21T05:06:04.392Z,1019.9
2018-05-21T05:11:04.965Z,1019.9
2018-05-21T05:16:05.239Z,1019.9
2018-05-21T05:21:05.103Z,1019.8
2018-05-21T05:26:05.343Z,1019.8
2018-05-21T05:31:05.262Z,1019.8
2018-05-21T05:36:05.271Z,1019.7
2018-05-21T05:41:05.263Z,1019.6
2018-05-21T05:46:04.538Z,1019.6
2018-05-21T05:51:05.031Z,1019.6
2018-05-21T05:56:05.150Z,1019.5
2018-05-21T06:01:04.465Z,1019.5
2018-05-21T06:06:04.917Z,1019.5
2018-05-21T06:11:04.498Z,1019.4
2018-05-21T06:16:04.870Z,1019.4
2018-05-21T06:21:05.369Z,1019.4
2018-05-21T06:26:04.732Z,1019.4
2018-05-21T06:31:04.856Z,1019.4
2018-05-21T06:36:04.386Z,1019.4
2018-05-21T06:41:05.589Z,1019.3
2018-05-21T06:46:05.215Z,1019.3
2018-05-21T06:51:04.710Z,1019.3
2018-05-21T06:56:06.338Z,1019.4
2018-05-21T07:01:05.289Z,1019.3
2018-05-21T07:06:04.722Z,1019.2
2018-05-21T07:11:05.270Z,1019.2
2018-05-21T07:16:04.488Z,1019.1
2018-05-21T07:21:05.621Z,1019
2018-05-21T07:26:05.239Z,1019
2018-05-21T07:31:04.519Z,1018.9
2018-05-21T07:36:05.017Z,1018.9
2018-05-21T07:41:04.641Z,1018.8
2018-05-21T07:46:04.950Z,1018.7
2018-05-21T07:51:04.365Z,1018.7
2018-05-21T07:56:04.637Z,1018.7
2018-05-21T08:01:04.916Z,1018.6
2018-05-21T08:06:04.393Z,1018.6
2018-05-21T08:11:04.930Z,1018.5
2018-05-21T08:16:05.238Z,1018.5
2018-05-21T08:21:04.707Z,1018.3
2018-05-21T08:26:05.003Z,1018.3
2018-05-21T08:31:05.220Z,1018.2
2018-05-21T08:36:05.373Z,1018.1
2018-05-21T08:41:04.326Z,1018.1
2018-05-21T08:46:04.585Z,1018
2018-05-21T08:51:05.086Z,1017.9
2018-05-21T08:56:04.313Z,1017.8
2018-05-21T09:01:04.528Z,1017.7
2018-05-21T09:06:05.033Z,1017.7
2018-05-21T09:11:05.332Z,1017.6
2018-05-21T09:16:04.929Z,1017.6
2018-05-21T09:21:09.876Z,1017.5
2018-05-21T09:26:05.096Z,1017.5
2018-05-21T09:31:04.966Z,1017.4
2018-05-21T09:36:05.235Z,1017.3
2018-05-21T09:41:05.018Z,1017.3
2018-05-21T09:46:05.249Z,1017.2
2018-05-21T09:51:04.778Z,1017.1
2018-05-21T09:56:04.940Z,1017.1
2018-05-21T10:01:05.675Z,1017
2018-05-21T10:06:04.772Z,1017
2018-05-21T10:11:04.496Z,1016.8
2018-05-21T10:16:04.790Z,1016.8
2018-05-21T10:21:05.174Z,1016.8
2018-05-21T10:26:04.797Z,1016.7
2018-05-21T10:31:04.692Z,1016.6
2018-05-21T10:36:05.181Z,1016.6
2018-05-21T10:41:05.400Z,1016.6
2018-05-21T10:46:05.063Z,1016.5
2018-05-21T10:51:04.508Z,1016.4
2018-05-21T10:56:05.177Z,1016.4
2018-05-21T11:01:05.691Z,1016.3
2018-05-21T11:06:04.537Z,1016.2
2018-05-21T11:11:05.082Z,1016.2
2018-05-21T11:16:04.802Z,1016
2018-05-21T11:21:04.952Z,1016
2018-05-21T11:26:05.751Z,1016
2018-05-21T11:31:04.389Z,1015.9
2018-05-21T11:36:05.277Z,1015.8
2018-05-21T11:41:04.437Z,1015.7
2018-05-21T11:46:04.730Z,1015.7
2018-05-21T11:51:05.823Z,1015.6
2018-05-21T11:56:04.459Z,1015.4
2018-05-21T12:01:04.785Z,1015.5
2018-05-21T12:06:05.167Z,1015.5
2018-05-21T12:11:04.775Z,1015.4
2018-05-21T12:16:05.065Z,1015.3
2018-05-21T12:21:04.566Z,1015.2
2018-05-21T12:26:09.816Z,1015.2
2018-05-21T12:31:05.902Z,1015.3
2018-05-21T12:36:04.928Z,1015.3
2018-05-21T12:41:05.117Z,1015.2
2018-05-21T12:46:04.392Z,1015.2
2018-05-21T12:51:04.947Z,1015.1
2018-05-21T12:56:05.062Z,1015
2018-05-21T13:01:04.395Z,1015
2018-05-21T13:06:04.848Z,1014.9
2018-05-21T13:11:05.057Z,1014.9
2018-05-21T13:16:05.479Z,1014.9
2018-05-21T13:21:06.673Z,1014.8
2018-05-21T13:26:05.158Z,1014.8
2018-05-21T13:31:05.130Z,1014.8
2018-05-21T13:36:05.603Z,1014.7
2018-05-21T13:41:04.854Z,1014.5
2018-05-21T13:46:05.035Z,1014.6
2018-05-21T13:51:05.856Z,1014.4
2018-05-21T13:56:04.725Z,1014.3
2018-05-21T14:01:05.126Z,1014.4
2018-05-21T14:06:04.478Z,1014.3
2018-05-21T14:11:05.097Z,1014.2
2018-05-21T14:16:04.491Z,1014.2
2018-05-21T14:21:04.889Z,1014.2
2018-05-21T14:26:05.135Z,1014.1
2018-05-21T14:31:04.419Z,1014
2018-05-21T14:36:04.848Z,1014
2018-05-21T14:41:04.407Z,1014
2018-05-21T14:46:05.138Z,1013.8
2018-05-21T14:51:05.129Z,1013.8
2018-05-21T14:56:04.403Z,1013.7
2018-05-21T15:01:04.687Z,1013.7
2018-05-21T15:06:05.293Z,1013.7
2018-05-21T15:11:04.642Z,1013.5
2018-05-21T15:16:05.836Z,1013.5
2018-05-21T15:21:05.410Z,1013.5
2018-05-21T15:26:04.741Z,1013.4
2018-05-21T15:31:05.715Z,1013.4
2018-05-21T15:36:05.032Z,1013.4
2018-05-21T15:41:05.018Z,1013.3
2018-05-21T15:46:04.397Z,1013.4
2018-05-21T15:51:04.795Z,1013.4
2018-05-21T15:56:04.991Z,1013.3
2018-05-21T16:01:04.322Z,1013.2
2018-05-21T16:06:04.830Z,1013.3
2018-05-21T16:11:04.442Z,1013.4
2018-05-21T16:16:05.268Z,1013.3
2018-05-21T16:21:05.250Z,1013.3
2018-05-21T16:26:04.429Z,1013.3
2018-05-21T16:31:04.662Z,1013.3
2018-05-21T16:36:05.119Z,1013.2
2018-05-21T16:41:04.727Z,1013.2
2018-05-21T16:46:05.111Z,1013.3
2018-05-21T16:51:04.518Z,1013.1
2018-05-21T16:56:04.771Z,1013.2
2018-05-21T17:01:04.961Z,1013.2
2018-05-21T17:06:04.466Z,1013.2
2018-05-21T17:11:05.120Z,1013.2
2018-05-21T17:16:04.392Z,1013.2
2018-05-21T17:21:04.957Z,1013.2
2018-05-21T17:26:05.149Z,1013.2
2018-05-21T17:31:04.404Z,1013.2
2018-05-21T17:36:04.845Z,1013.2
2018-05-21T17:41:04.397Z,1013.2
2018-05-21T17:46:04.717Z,1013.2
2018-05-21T17:51:05.273Z,1013.2
2018-05-21T17:56:04.431Z,1013.2
2018-05-21T18:01:04.730Z,1013.2
2018-05-21T18:06:05.634Z,1013.2
2018-05-21T18:11:04.927Z,1013.3
2018-05-21T18:16:06.581Z,1013.3
2018-05-21T18:21:04.569Z,1013.3
2018-05-21T18:26:04.840Z,1013.2
2018-05-21T18:31:05.221Z,1013.4
2018-05-21T18:36:05.440Z,1013.3
2018-05-21T18:41:05.155Z,1013.3
2018-05-21T18:46:04.893Z,1013.3
2018-05-21T18:51:05.873Z,1013.3
2018-05-21T18:56:05.953Z,1013.4
2018-05-21T19:01:04.379Z,1013.3
2018-05-21T19:06:05.491Z,1013.4
2018-05-21T19:11:06.713Z,1013.4
2018-05-21T19:16:06.652Z,1013.5
2018-05-21T19:21:05.485Z,1013.4
2018-05-21T19:26:04.718Z,1013.5
2018-05-21T19:31:05.260Z,1013.5
2018-05-21T19:36:07.453Z,1013.5
2018-05-21T19:41:06.709Z,1013.6
2018-05-21T19:46:07.388Z,1013.6
2018-05-21T19:51:04.805Z,1013.7
2018-05-21T19:56:04.753Z,1013.8
2018-05-21T20:01:06.480Z,1013.8
2018-05-21T20:06:05.649Z,1013.8
2018-05-21T20:11:07.142Z,1013.8
2018-05-21T20:16:06.789Z,1013.8
2018-05-21T20:21:05.905Z,1013.8
2018-05-21T20:26:06.079Z,1013.8
2018-05-21T20:31:05.091Z,1013.8
2018-05-21T20:36:05.478Z,1013.8
2018-05-21T20:41:05.749Z,1013.9
2018-05-21T20:46:05.077Z,1013.9
2018-05-21T20:51:05.379Z,1013.9
2018-05-21T20:56:04.822Z,1013.9
2018-05-21T21:01:04.741Z,1013.9
2018-05-21T21:06:05.535Z,1013.9
2018-05-21T21:11:04.787Z,1013.9
2018-05-21T21:16:05.066Z,1013.9
2018-05-21T21:21:04.564Z,1013.9
2018-05-21T21:26:04.772Z,1013.9
2018-05-21T21:31:04.987Z,1013.9
2018-05-21T21:36:04.866Z,1013.8
2018-05-21T21:41:05.763Z,1013.8
2018-05-21T21:46:04.411Z,1013.8
2018-05-21T21:51:04.905Z,1013.8
2018-05-21T21:56:05.247Z,1013.7
2018-05-21T22:01:04.436Z,1013.6
2018-05-21T22:06:04.846Z,1013.6
2018-05-21T22:11:04.484Z,1013.6
2018-05-21T22:16:04.769Z,1013.6
2018-05-21T22:21:05.243Z,1013.6
2018-05-21T22:26:09.518Z,1013.6
2018-05-21T22:31:04.728Z,1013.6
2018-05-21T22:36:05.218Z,1013.6
2018-05-21T22:41:04.821Z,1013.6
2018-05-21T22:46:05.112Z,1013.5
2018-05-21T22:51:04.576Z,1013.5
2018-05-21T22:56:05.117Z,1013.4
2018-05-21T23:01:05.068Z,1013.4
2018-05-21T23:06:04.503Z,1013.4
2018-05-21T23:11:05.092Z,1013.3
2018-05-21T23:16:04.764Z,1013.3
2018-05-21T23:21:04.915Z,1013.3
2018-05-21T23:26:05.505Z,1013.3
2018-05-21T23:31:04.399Z,1013.2
2018-05-21T23:36:04.962Z,1013.2
2018-05-21T23:41:05.538Z,1013.2
2018-05-21T23:46:05.389Z,1013.2
2018-05-21T23:51:05.949Z,1013.3
2018-05-21T23:56:04.417Z,1013.3
